Time;durP1;ratioP1;P1;durP2;ratioP2;P2;SDS_P1;SDS_P2;PMS_P1;PMS_P2;Temp;Humidity;BMP_temperature;BMP_pressure;BME280_temperature;BME280_humidity;BME280_pressure;Samples;Min_cycle;Max_cycle;Signal;HPM_P1;HPM_P2
2022/11/10 00:02:09;;;;;;;24.20;11.35;;;;;;;;;;4896632;29;20048;-39
2022/11/10 00:04:53;;;;;;;26.92;11.68;;;;;;;;;;4896457;29;20566;-39
2022/11/10 00:07:37;;;;;;;21.83;11.30;;;;;;;;;;4896740;29;20043;-39
2022/11/10 00:10:20;;;;;;;22.65;11.45;;;;;;;;;;4896525;29;20100;-39
2022/11/10 00:13:04;;;;;;;29.25;11.98;;;;;;;;;;4896832;29;20548;-39
2022/11/10 00:18:51;;;;;;;24.13;11.10;;;;;;;;;;4896691;29;20171;-39
2022/11/10 00:21:36;;;;;;;24.27;11.27;;;;;;;;;;4896403;29;20048;-39
2022/11/10 00:24:21;;;;;;;24.65;11.90;;;;;;;;;;4896451;29;20411;-39
2022/11/10 00:27:05;;;;;;;27.00;12.25;;;;;;;;;;4896676;29;20040;-39
2022/11/10 00:29:48;;;;;;;24.02;10.43;;;;;;;;;;4896219;29;20059;-40
2022/11/10 00:32:32;;;;;;;45.72;14.13;;;;;;;;;;4896656;29;20051;-39
2022/11/10 00:35:16;;;;;;;22.65;12.02;;;;;;;;;;4896399;29;20039;-40
2022/11/10 00:38:00;;;;;;;34.83;14.55;;;;;;;;;;4896250;29;20051;-39
2022/11/10 00:40:46;;;;;;;27.48;12.95;;;;;;;;;;4896461;29;20510;-39
2022/11/10 00:43:29;;;;;;;29.02;10.93;;;;;;;;;;4896515;29;20059;-39
2022/11/10 00:46:14;;;;;;;24.65;11.50;;;;;;;;;;4896506;29;20055;-39
2022/11/10 00:48:58;;;;;;;19.42;10.48;;;;;;;;;;4896205;29;20048;-39
2022/11/10 00:51:42;;;;;;;23.98;11.48;;;;;;;;;;4898094;29;20509;-39
2022/11/10 00:54:26;;;;;;;21.83;10.45;;;;;;;;;;4900338;29;20182;-40
2022/11/10 00:57:10;;;;;;;26.88;11.05;;;;;;;;;;4900223;29;20112;-39
2022/11/10 00:59:54;;;;;;;23.30;10.85;;;;;;;;;;4899864;29;20032;-39
2022/11/10 01:02:38;;;;;;;26.05;10.98;;;;;;;;;;4899844;29;20044;-39
2022/11/10 01:05:21;;;;;;;22.98;10.27;;;;;;;;;;4899776;29;20506;-40
2022/11/10 01:08:06;;;;;;;33.97;11.63;;;;;;;;;;4899892;29;20075;-41
2022/11/10 01:10:49;;;;;;;21.58;10.50;;;;;;;;;;4899775;29;20059;-39
2022/11/10 01:13:34;;;;;;;23.52;12.07;;;;;;;;;;4899944;29;20087;-39
2022/11/10 01:16:21;;;;;;;22.63;10.10;;;;;;;;;;4899741;29;20173;-40
2022/11/10 01:19:05;;;;;;;21.08;10.30;;;;;;;;;;4899907;29;20181;-39
2022/11/10 01:21:49;;;;;;;20.55;9.40;;;;;;;;;;4899487;29;20039;-39
2022/11/10 01:24:34;;;;;;;22.42;10.23;;;;;;;;;;4899769;29;20052;-39
2022/11/10 01:27:17;;;;;;;24.83;9.85;;;;;;;;;;4899435;29;20117;-40
2022/11/10 01:30:01;;;;;;;20.42;10.20;;;;;;;;;;4899493;29;20110;-39
2022/11/10 01:32:45;;;;;;;22.00;10.75;;;;;;;;;;4899478;29;20148;-40
2022/11/10 01:35:29;;;;;;;19.67;10.93;;;;;;;;;;4898341;29;20051;-40
2022/11/10 01:38:13;;;;;;;20.48;10.65;;;;;;;;;;4899327;29;20535;-39
2022/11/10 01:40:57;;;;;;;30.73;10.85;;;;;;;;;;4899515;29;20059;-39
2022/11/10 01:43:41;;;;;;;30.98;12.18;;;;;;;;;;4899360;29;20182;-39
2022/11/10 01:46:26;;;;;;;19.17;9.15;;;;;;;;;;4899200;29;20408;-40
2022/11/10 01:49:10;;;;;;;18.75;10.02;;;;;;;;;;4899062;29;20043;-39
2022/11/10 01:52:00;;;;;;;21.38;10.07;;;;;;;;;;4898854;29;20522;-39
2022/11/10 01:54:47;;;;;;;23.85;9.05;;;;;;;;;;4898883;29;20043;-39
2022/11/10 01:57:31;;;;;;;22.80;10.32;;;;;;;;;;4899267;29;20595;-40
2022/11/10 02:00:16;;;;;;;20.55;11.00;;;;;;;;;;4898846;29;20511;-39
2022/11/10 02:03:15;;;;;;;28.23;10.35;;;;;;;;;;4898452;29;20140;-39
2022/11/10 02:05:59;;;;;;;27.25;10.07;;;;;;;;;;4898671;29;20054;-39
2022/11/10 02:08:43;;;;;;;19.27;8.93;;;;;;;;;;4898895;29;20040;-39
2022/11/10 02:11:27;;;;;;;23.10;9.30;;;;;;;;;;4898543;29;20087;-40
2022/11/10 02:14:12;;;;;;;22.48;10.70;;;;;;;;;;4898930;29;20104;-39
2022/11/10 02:16:56;;;;;;;14.43;8.52;;;;;;;;;;4898511;29;20268;-40
2022/11/10 02:19:40;;;;;;;20.80;9.10;;;;;;;;;;4898747;29;20043;-39
2022/11/10 02:22:24;;;;;;;21.25;7.43;;;;;;;;;;4898736;29;20526;-39
2022/11/10 02:25:09;;;;;;;18.08;8.77;;;;;;;;;;4898786;29;20043;-40
2022/11/10 02:27:53;;;;;;;19.50;9.38;;;;;;;;;;4898590;29;20044;-42
2022/11/10 02:30:37;;;;;;;21.30;11.93;;;;;;;;;;4898438;29;20119;-39
2022/11/10 02:33:21;;;;;;;15.30;7.43;;;;;;;;;;4898379;29;20058;-39
2022/11/10 02:36:05;;;;;;;12.68;6.95;;;;;;;;;;4898532;29;20043;-39
2022/11/10 02:38:49;;;;;;;14.48;8.63;;;;;;;;;;4898386;29;20609;-39
2022/11/10 02:41:33;;;;;;;18.55;8.95;;;;;;;;;;4898419;29;20127;-39
2022/11/10 02:44:17;;;;;;;14.23;7.60;;;;;;;;;;4898281;29;20056;-39
2022/11/10 02:47:01;;;;;;;16.92;7.88;;;;;;;;;;4897999;29;20407;-39
2022/11/10 02:49:45;;;;;;;14.40;7.05;;;;;;;;;;4897960;29;20050;-40
2022/11/10 02:52:29;;;;;;;16.85;8.43;;;;;;;;;;4897896;29;20117;-42
2022/11/10 02:55:13;;;;;;;15.20;7.22;;;;;;;;;;4897960;29;20158;-39
2022/11/10 02:57:57;;;;;;;17.80;7.75;;;;;;;;;;4898011;29;20733;-39
2022/11/10 03:00:41;;;;;;;15.63;7.82;;;;;;;;;;4897959;29;20043;-39
2022/11/10 03:03:26;;;;;;;11.50;6.68;;;;;;;;;;4897756;29;20047;-40
2022/11/10 03:06:10;;;;;;;15.50;7.60;;;;;;;;;;4897610;29;20067;-39
2022/11/10 03:08:54;;;;;;;20.95;8.05;;;;;;;;;;4897688;29;20107;-39
2022/11/10 03:11:38;;;;;;;23.23;8.13;;;;;;;;;;4897418;29;20048;-39
2022/11/10 03:14:22;;;;;;;12.13;5.57;;;;;;;;;;4897173;29;20038;-39
2022/11/10 03:17:06;;;;;;;15.00;7.97;;;;;;;;;;4897576;29;20123;-39
2022/11/10 03:19:50;;;;;;;13.68;7.30;;;;;;;;;;4897235;29;20499;-40
2022/11/10 03:22:34;;;;;;;12.43;6.43;;;;;;;;;;4897472;29;20039;-39
2022/11/10 03:25:18;;;;;;;15.48;7.95;;;;;;;;;;4897663;29;20083;-40
2022/11/10 03:28:02;;;;;;;13.05;7.60;;;;;;;;;;4897149;29;20127;-39
2022/11/10 03:30:45;;;;;;;15.02;7.47;;;;;;;;;;4897028;29;20601;-39
2022/11/10 03:33:29;;;;;;;13.93;7.03;;;;;;;;;;4897427;29;20048;-40
2022/11/10 03:36:14;;;;;;;11.32;6.13;;;;;;;;;;4897442;29;20086;-40
2022/11/10 03:38:58;;;;;;;15.50;7.72;;;;;;;;;;4897282;29;20040;-39
2022/11/10 03:41:42;;;;;;;14.68;6.70;;;;;;;;;;4896872;29;20092;-39
2022/11/10 03:44:26;;;;;;;13.85;6.32;;;;;;;;;;4897078;29;20039;-40
2022/11/10 03:47:10;;;;;;;17.75;7.60;;;;;;;;;;4897232;29;20165;-40
2022/11/10 03:49:54;;;;;;;14.98;6.40;;;;;;;;;;4896812;29;20127;-39
2022/11/10 03:52:39;;;;;;;12.77;6.10;;;;;;;;;;4897203;29;20509;-39
2022/11/10 03:55:23;;;;;;;10.30;4.88;;;;;;;;;;4897013;29;20108;-39
2022/11/10 03:58:07;;;;;;;11.10;6.13;;;;;;;;;;4896892;29;20055;-39
2022/11/10 04:00:51;;;;;;;8.25;3.70;;;;;;;;;;4897000;29;20547;-39
2022/11/10 04:03:35;;;;;;;10.68;4.78;;;;;;;;;;4896938;29;20111;-39
2022/11/10 04:09:22;;;;;;;9.80;5.43;;;;;;;;;;4896602;29;20059;-39
2022/11/10 04:18:19;;;;;;;8.45;4.20;;;;;;;;;;4896774;29;20054;-40
2022/11/10 04:21:04;;;;;;;7.63;4.53;;;;;;;;;;4896505;29;20040;-39
2022/11/10 04:23:50;;;;;;;7.28;4.40;;;;;;;;;;4896377;29;20535;-39
2022/11/10 04:26:39;;;;;;;5.78;3.20;;;;;;;;;;4896681;29;20035;-39
2022/11/10 04:29:23;;;;;;;8.57;5.28;;;;;;;;;;4896737;29;20063;-40
2022/11/10 04:32:07;;;;;;;9.43;5.18;;;;;;;;;;4896353;29;20059;-40
2022/11/10 04:34:51;;;;;;;7.22;4.70;;;;;;;;;;4896278;29;20119;-40
2022/11/10 04:37:35;;;;;;;7.38;3.78;;;;;;;;;;4896609;29;20131;-39
2022/11/10 04:40:19;;;;;;;7.15;3.85;;;;;;;;;;4896538;29;20044;-39
2022/11/10 04:43:03;;;;;;;9.38;4.35;;;;;;;;;;4896447;29;20112;-40
2022/11/10 04:45:47;;;;;;;7.97;4.22;;;;;;;;;;4896141;29;20043;-40
2022/11/10 04:48:32;;;;;;;5.28;3.38;;;;;;;;;;4896312;29;20044;-39
2022/11/10 04:51:16;;;;;;;3.78;3.42;;;;;;;;;;4896329;29;20063;-39
2022/11/10 04:54:00;;;;;;;5.95;4.55;;;;;;;;;;4896385;29;20048;-40
2022/11/10 04:56:45;;;;;;;6.80;3.10;;;;;;;;;;4896177;29;20570;-40
2022/11/10 04:59:28;;;;;;;5.22;3.10;;;;;;;;;;4896340;29;20056;-39
2022/11/10 05:02:13;;;;;;;3.28;2.63;;;;;;;;;;4896408;29;20100;-39
2022/11/10 05:04:56;;;;;;;5.00;3.33;;;;;;;;;;4895883;29;20064;-40
2022/11/10 05:07:40;;;;;;;3.80;2.58;;;;;;;;;;4896003;29;20185;-39
2022/11/10 05:10:25;;;;;;;3.38;3.08;;;;;;;;;;4895972;29;20100;-39
2022/11/10 05:13:10;;;;;;;5.38;3.03;;;;;;;;;;4896333;29;20067;-40
2022/11/10 05:15:53;;;;;;;2.40;2.05;;;;;;;;;;4896054;29;20040;-40
2022/11/10 05:18:38;;;;;;;3.67;2.15;;;;;;;;;;4895973;29;20398;-39
2022/11/10 05:21:22;;;;;;;3.53;2.65;;;;;;;;;;4895933;29;20050;-39
2022/11/10 05:24:06;;;;;;;2.42;2.22;;;;;;;;;;4895980;29;20117;-39
2022/11/10 05:26:50;;;;;;;1.88;1.75;;;;;;;;;;4896141;29;20067;-39
2022/11/10 05:29:34;;;;;;;2.70;1.67;;;;;;;;;;4895948;29;20060;-39
2022/11/10 05:32:17;;;;;;;2.58;2.05;;;;;;;;;;4895892;29;20136;-39
2022/11/10 05:35:01;;;;;;;1.75;1.45;;;;;;;;;;4895800;29;20120;-39
2022/11/10 05:37:45;;;;;;;4.00;2.03;;;;;;;;;;4897659;29;20507;-40
2022/11/10 05:40:30;;;;;;;1.58;1.48;;;;;;;;;;4899530;29;20104;-39
2022/11/10 05:43:14;;;;;;;6.60;1.98;;;;;;;;;;4899471;29;20133;-40
2022/11/10 05:45:59;;;;;;;5.68;2.13;;;;;;;;;;4899387;29;20052;-39
2022/11/10 05:48:43;;;;;;;3.17;2.35;;;;;;;;;;4899036;29;20604;-40
2022/11/10 05:51:26;;;;;;;1.77;1.25;;;;;;;;;;4899085;29;20140;-39
2022/11/10 05:54:10;;;;;;;3.03;2.08;;;;;;;;;;4899037;29;20039;-39
2022/11/10 05:56:54;;;;;;;2.30;1.70;;;;;;;;;;4898836;29;20047;-39
2022/11/10 05:59:39;;;;;;;3.03;1.77;;;;;;;;;;4898961;29;20067;-39
2022/11/10 06:02:23;;;;;;;2.47;1.63;;;;;;;;;;4898896;29;20067;-39
2022/11/10 06:05:07;;;;;;;3.42;2.05;;;;;;;;;;4898575;29;20060;-39
2022/11/10 06:07:51;;;;;;;2.10;1.58;;;;;;;;;;4898749;29;20083;-39
2022/11/10 06:10:36;;;;;;;5.03;2.08;;;;;;;;;;4898821;29;20550;-39
2022/11/10 06:13:19;;;;;;;1.98;1.35;;;;;;;;;;4899023;29;20492;-39
2022/11/10 06:16:03;;;;;;;2.47;1.65;;;;;;;;;;4898673;29;20415;-39
2022/11/10 06:18:48;;;;;;;1.80;1.45;;;;;;;;;;4898417;29;20048;-39
2022/11/10 06:21:32;;;;;;;1.98;1.75;;;;;;;;;;4898821;29;20048;-40
2022/11/10 06:24:16;;;;;;;2.33;1.45;;;;;;;;;;4898762;29;20124;-40
2022/11/10 06:27:00;;;;;;;1.73;1.23;;;;;;;;;;4898602;29;20559;-39
2022/11/10 06:29:44;;;;;;;2.35;2.00;;;;;;;;;;4898558;29;20085;-40
2022/11/10 06:32:28;;;;;;;2.03;1.80;;;;;;;;;;4898280;29;20461;-39
2022/11/10 06:35:11;;;;;;;2.55;1.25;;;;;;;;;;4898373;29;20395;-40
2022/11/10 06:38:06;;;;;;;1.73;1.50;;;;;;;;;;4898435;29;20043;-39
2022/11/10 06:40:50;;;;;;;2.42;1.55;;;;;;;;;;4898313;29;20105;-39
2022/11/10 06:43:34;;;;;;;1.55;1.20;;;;;;;;;;4898094;29;20035;-41
2022/11/10 06:46:18;;;;;;;1.50;1.13;;;;;;;;;;4898069;29;20047;-39
2022/11/10 06:49:03;;;;;;;2.05;1.15;;;;;;;;;;4896973;29;20503;-39
2022/11/10 06:51:47;;;;;;;3.03;1.50;;;;;;;;;;4897900;29;20059;-39
2022/11/10 06:54:31;;;;;;;2.40;1.17;;;;;;;;;;4898212;29;20047;-39
2022/11/10 06:57:15;;;;;;;1.30;1.00;;;;;;;;;;4897886;29;20092;-39
2022/11/10 06:59:59;;;;;;;1.63;1.20;;;;;;;;;;4897747;29;20075;-39
2022/11/10 07:02:43;;;;;;;1.35;1.23;;;;;;;;;;4897894;29;20080;-40
2022/11/10 07:05:27;;;;;;;2.33;1.27;;;;;;;;;;4897584;29;20048;-39
2022/11/10 07:08:14;;;;;;;1.40;1.30;;;;;;;;;;4897708;29;20135;-40
2022/11/10 07:10:59;;;;;;;1.40;1.30;;;;;;;;;;4897737;29;20127;-40
2022/11/10 07:13:43;;;;;;;1.25;0.82;;;;;;;;;;4897823;29;20499;-39
2022/11/10 07:16:27;;;;;;;2.75;1.20;;;;;;;;;;4897820;29;20056;-39
2022/11/10 07:19:11;;;;;;;1.55;0.90;;;;;;;;;;4897605;29;20059;-39
2022/11/10 07:21:54;;;;;;;3.97;1.02;;;;;;;;;;4897555;29;20111;-39
2022/11/10 07:24:39;;;;;;;0.98;0.88;;;;;;;;;;4897673;29;20035;-39
2022/11/10 07:27:23;;;;;;;1.40;1.30;;;;;;;;;;4897412;29;20069;-40
2022/11/10 07:30:07;;;;;;;1.77;1.33;;;;;;;;;;4897187;29;20039;-39
2022/11/10 07:32:59;;;;;;;0.80;0.80;;;;;;;;;;4897197;29;20055;-39
2022/11/10 07:35:42;;;;;;;1.23;0.98;;;;;;;;;;4897235;29;20109;-40
2022/11/10 07:38:26;;;;;;;2.15;1.17;;;;;;;;;;4897180;29;20746;-39
2022/11/10 07:41:10;;;;;;;0.88;0.80;;;;;;;;;;4897292;29;20063;-39
2022/11/10 07:43:54;;;;;;;1.13;1.00;;;;;;;;;;4897009;29;20141;-39
2022/11/10 07:46:38;;;;;;;1.50;1.15;;;;;;;;;;4897049;29;20047;-39
2022/11/10 07:49:22;;;;;;;0.88;0.75;;;;;;;;;;4896952;29;20404;-40
2022/11/10 07:52:06;;;;;;;0.75;0.75;;;;;;;;;;4896889;29;20047;-39
2022/11/10 07:54:50;;;;;;;1.00;1.00;;;;;;;;;;4896827;29;20510;-39
2022/11/10 07:57:34;;;;;;;0.47;0.47;;;;;;;;;;4897083;29;20067;-39
2022/11/10 08:00:18;;;;;;;2.05;0.93;;;;;;;;;;4896718;29;20116;-39
2022/11/10 08:03:04;;;;;;;0.95;0.65;;;;;;;;;;4897252;29;20043;-39
2022/11/10 08:05:48;;;;;;;1.02;0.70;;;;;;;;;;4896553;29;20056;-39
2022/11/10 08:08:32;;;;;;;0.75;0.57;;;;;;;;;;4896921;29;20052;-40
2022/11/10 08:11:16;;;;;;;0.52;0.52;;;;;;;;;;4896708;29;20092;-39
2022/11/10 08:14:00;;;;;;;1.02;0.93;;;;;;;;;;4896591;29;20071;-40
2022/11/10 08:16:44;;;;;;;0.93;0.65;;;;;;;;;;4896559;29;20039;-44
2022/11/10 08:19:28;;;;;;;1.25;1.15;;;;;;;;;;4896692;29;20047;-39
2022/11/10 08:22:12;;;;;;;0.77;0.77;;;;;;;;;;4896866;29;20048;-39
2022/11/10 08:24:55;;;;;;;0.35;0.30;;;;;;;;;;4896417;29;20040;-39
2022/11/10 08:27:40;;;;;;;0.95;0.88;;;;;;;;;;4896741;29;20513;-39
2022/11/10 08:30:23;;;;;;;0.70;0.70;;;;;;;;;;4896371;29;20042;-39
2022/11/10 08:33:08;;;;;;;1.02;0.90;;;;;;;;;;4896273;29;20108;-39
2022/11/10 08:35:52;;;;;;;1.23;1.08;;;;;;;;;;4896316;29;20133;-39
2022/11/10 08:38:36;;;;;;;2.05;1.27;;;;;;;;;;4896343;29;20188;-39
2022/11/10 08:41:20;;;;;;;0.95;0.88;;;;;;;;;;4896286;29;20084;-39
2022/11/10 08:44:05;;;;;;;1.30;1.20;;;;;;;;;;4896483;29;20510;-39
2022/11/10 08:46:49;;;;;;;1.33;0.90;;;;;;;;;;4896204;29;20108;-39
2022/11/10 08:49:33;;;;;;;2.40;1.30;;;;;;;;;;4896535;29;20063;-40
2022/11/10 08:52:17;;;;;;;2.03;1.40;;;;;;;;;;4896234;29;20052;-40
2022/11/10 08:55:01;;;;;;;2.05;1.25;;;;;;;;;;4896388;29;20049;-39
2022/11/10 08:57:45;;;;;;;1.95;1.13;;;;;;;;;;4896249;29;20043;-39
2022/11/10 09:00:30;;;;;;;2.83;1.52;;;;;;;;;;4896131;29;20036;-39
2022/11/10 09:03:15;;;;;;;3.05;1.88;;;;;;;;;;4895195;29;20101;-39
2022/11/10 09:05:59;;;;;;;3.25;1.45;;;;;;;;;;4895931;29;20051;-39
2022/11/10 09:08:43;;;;;;;1.42;1.33;;;;;;;;;;4895998;29;20043;-39
2022/11/10 09:11:28;;;;;;;1.00;0.88;;;;;;;;;;4896041;29;20051;-39
2022/11/10 09:14:12;;;;;;;2.10;0.90;;;;;;;;;;4899870;29;20044;-39
2022/11/10 09:16:57;;;;;;;1.38;1.10;;;;;;;;;;4899894;29;20042;-39
2022/11/10 09:19:41;;;;;;;1.65;1.02;;;;;;;;;;4899862;29;20075;-39
2022/11/10 09:22:25;;;;;;;0.82;0.68;;;;;;;;;;4899613;29;20469;-39
2022/11/10 09:25:09;;;;;;;0.40;0.40;;;;;;;;;;4899546;29;20172;-39
2022/11/10 09:27:53;;;;;;;0.82;0.80;;;;;;;;;;4899698;29;20103;-46
2022/11/10 09:30:37;;;;;;;1.52;1.00;;;;;;;;;;4899338;29;20183;-40
2022/11/10 09:33:21;;;;;;;1.75;1.30;;;;;;;;;;4899725;29;20139;-39
2022/11/10 09:36:06;;;;;;;1.27;0.82;;;;;;;;;;4899552;29;20049;-39
2022/11/10 09:38:50;;;;;;;1.55;0.80;;;;;;;;;;4899497;29;20092;-39
2022/11/10 09:41:38;;;;;;;0.52;0.52;;;;;;;;;;4899605;29;20130;-39
2022/11/10 09:44:26;;;;;;;0.75;0.52;;;;;;;;;;4899272;29;20079;-39
2022/11/10 09:47:17;;;;;;;0.60;0.60;;;;;;;;;;4899019;29;20120;-39
2022/11/10 09:50:02;;;;;;;0.98;0.88;;;;;;;;;;4899012;29;20124;-39
2022/11/10 09:52:48;;;;;;;0.75;0.75;;;;;;;;;;4898961;29;20125;-39
2022/11/10 09:55:36;;;;;;;0.73;0.60;;;;;;;;;;4899237;29;20048;-40
2022/11/10 09:58:24;;;;;;;0.63;0.40;;;;;;;;;;4899262;29;20076;-39
2022/11/10 10:01:26;;;;;;;0.82;0.35;;;;;;;;;;4898522;29;20067;-39
2022/11/10 10:04:20;;;;;;;0.30;0.30;;;;;;;;;;4897911;29;20100;-39
2022/11/10 10:07:13;;;;;;;0.45;0.40;;;;;;;;;;4898904;29;20115;-39
2022/11/10 10:10:19;;;;;;;0.63;0.63;;;;;;;;;;4898804;29;20079;-39
2022/11/10 10:13:13;;;;;;;0.60;0.40;;;;;;;;;;4898709;29;20054;-39
2022/11/10 10:16:20;;;;;;;0.45;0.43;;;;;;;;;;4898948;29;20043;-39
2022/11/10 10:19:19;;;;;;;0.30;0.30;;;;;;;;;;4898711;29;20394;-39
2022/11/10 10:22:12;;;;;;;0.40;0.40;;;;;;;;;;4898586;29;20530;-39
2022/11/10 10:24:58;;;;;;;0.40;0.40;;;;;;;;;;4898763;29;20135;-40
2022/11/10 10:27:44;;;;;;;0.30;0.30;;;;;;;;;;4898727;29;20123;-39
2022/11/10 10:30:28;;;;;;;0.30;0.30;;;;;;;;;;4898412;29;20043;-40
2022/11/10 10:33:19;;;;;;;0.43;0.43;;;;;;;;;;4898333;29;20164;-39
2022/11/10 10:36:07;;;;;;;0.17;0.17;;;;;;;;;;4898514;29;20451;-39
2022/11/10 10:38:54;;;;;;;0.20;0.20;;;;;;;;;;4898211;29;20389;-40
2022/11/10 10:41:38;;;;;;;0.25;0.25;;;;;;;;;;4898468;29;20048;-39
2022/11/10 10:44:22;;;;;;;0.40;0.30;;;;;;;;;;4898216;29;20511;-39
2022/11/10 10:47:06;;;;;;;0.73;0.30;;;;;;;;;;4898590;29;20051;-39
2022/11/10 10:49:49;;;;;;;1.00;0.77;;;;;;;;;;4898505;29;20101;-40
2022/11/10 10:52:33;;;;;;;2.40;1.27;;;;;;;;;;4898098;29;20087;-39
2022/11/10 10:55:17;;;;;;;0.17;0.17;;;;;;;;;;4897958;29;20120;-39
2022/11/10 10:58:04;;;;;;;0.20;0.10;;;;;;;;;;4897907;29;20132;-39
2022/11/10 11:00:50;;;;;;;0.25;0.25;;;;;;;;;;4897802;29;20048;-39
2022/11/10 11:03:37;;;;;;;0.55;0.43;;;;;;;;;;4897774;29;20503;-40
2022/11/10 11:06:31;;;;;;;0.20;0.20;;;;;;;;;;4897728;29;20514;-39
2022/11/10 11:09:22;;;;;;;0.57;0.40;;;;;;;;;;4897942;29;20081;-39
2022/11/10 11:12:10;;;;;;;0.20;0.20;;;;;;;;;;4897665;29;20195;-39
2022/11/10 11:15:29;;;;;;;1.00;0.90;;;;;;;;;;4897866;29;20044;-39
2022/11/10 11:18:17;;;;;;;0.32;0.30;;;;;;;;;;4839381;29;20145;-39
2022/11/10 11:21:04;;;;;;;0.30;0.20;;;;;;;;;;4897702;29;20106;-39
2022/11/10 11:24:01;;;;;;;0.63;0.63;;;;;;;;;;4897633;29;20047;-39
2022/11/10 11:27:08;;;;;;;0.30;0.30;;;;;;;;;;4897700;29;20039;-39
2022/11/10 11:30:04;;;;;;;0.40;0.40;;;;;;;;;;4897460;29;20092;-40
2022/11/10 11:33:08;;;;;;;0.98;0.50;;;;;;;;;;4897262;29;20140;-39
2022/11/10 11:35:52;;;;;;;;;;;;;;;;;;4897323;29;20571;-39
2022/11/10 11:38:55;;;;;;;0.40;0.20;;;;;;;;;;4897418;29;19923;-39
2022/11/10 11:41:49;;;;;;;3.93;0.43;;;;;;;;;;4897469;29;20091;-39
2022/11/10 11:44:49;;;;;;;1.20;1.10;;;;;;;;;;4897095;29;20132;-39
2022/11/10 11:47:33;;;;;;;0.65;0.28;;;;;;;;;;4897367;29;20403;-39
2022/11/10 11:50:23;;;;;;;0.22;0.22;;;;;;;;;;4896960;29;20046;-39
2022/11/10 11:53:19;;;;;;;1.98;0.30;;;;;;;;;;4897135;29;20100;-39
2022/11/10 11:56:22;;;;;;;0.57;0.57;;;;;;;;;;4897446;29;20076;-39
2022/11/10 11:59:19;;;;;;;0.60;0.50;;;;;;;;;;4896830;29;20136;-40
2022/11/10 12:02:10;;;;;;;1.08;0.38;;;;;;;;;;4896847;29;20043;-39
2022/11/10 12:05:01;;;;;;;0.77;0.28;;;;;;;;;;4896821;29;20100;-39
2022/11/10 12:08:08;;;;;;;0.38;0.17;;;;;;;;;;4896998;29;20088;-39
2022/11/10 12:11:04;;;;;;;0.68;0.60;;;;;;;;;;4896618;29;20096;-39
2022/11/10 12:14:03;;;;;;;1.15;0.70;;;;;;;;;;4896867;29;20052;-39
2022/11/10 12:17:06;;;;;;;0.28;0.28;;;;;;;;;;4896628;29;20047;-39
2022/11/10 12:19:56;;;;;;;0.90;0.47;;;;;;;;;;4896761;29;20057;-39
2022/11/10 12:22:40;;;;;;;0.45;0.40;;;;;;;;;;4896809;29;20084;-39
2022/11/10 12:25:33;;;;;;;0.85;0.28;;;;;;;;;;4896577;29;20044;-38
2022/11/10 12:28:20;;;;;;;1.13;0.95;;;;;;;;;;4896504;29;20048;-39
2022/11/10 12:31:09;;;;;;;0.35;0.28;;;;;;;;;;4896498;29;20047;-39
2022/11/10 12:33:55;;;;;;;0.43;0.38;;;;;;;;;;4896604;29;20452;-39
2022/11/10 12:36:40;;;;;;;1.08;0.43;;;;;;;;;;4895575;29;20043;-39
2022/11/10 12:39:31;;;;;;;0.40;0.30;;;;;;;;;;4896368;29;20081;-39
2022/11/10 12:42:18;;;;;;;0.38;0.30;;;;;;;;;;4896215;29;20125;-39
2022/11/10 12:45:22;;;;;;;0.30;0.30;;;;;;;;;;4896250;29;20511;-39
2022/11/10 12:48:08;;;;;;;0.38;0.38;;;;;;;;;;4899094;29;20539;-39
2022/11/10 12:51:10;;;;;;;0.32;0.30;;;;;;;;;;4900306;29;20116;-40
2022/11/10 12:53:55;;;;;;;0.30;0.30;;;;;;;;;;4900157;29;20048;-39
2022/11/10 12:56:48;;;;;;;0.55;0.35;;;;;;;;;;4900127;29;20404;-39
2022/11/10 12:59:37;;;;;;;0.43;0.30;;;;;;;;;;4900318;29;20091;-39
2022/11/10 13:02:22;;;;;;;0.98;0.30;;;;;;;;;;4899217;29;20100;-39
2022/11/10 13:05:18;;;;;;;0.28;0.28;;;;;;;;;;4899918;29;20095;-39
2022/11/10 13:08:11;;;;;;;0.63;0.30;;;;;;;;;;4900156;29;20051;-39
2022/11/10 13:11:16;;;;;;;4.22;0.63;;;;;;;;;;4899932;29;20139;-39
2022/11/10 13:14:02;;;;;;;0.25;0.25;;;;;;;;;;4897457;29;20165;-39
2022/11/10 13:16:53;;;;;;;0.40;0.40;;;;;;;;;;4900042;29;20042;-39
2022/11/10 13:19:37;;;;;;;0.50;0.28;;;;;;;;;;4899905;29;20051;-40
2022/11/10 13:22:27;;;;;;;0.35;0.20;;;;;;;;;;4899970;29;20143;-39
2022/11/10 13:25:32;;;;;;;0.63;0.40;;;;;;;;;;4899799;29;20124;-39
2022/11/10 13:28:36;;;;;;;0.20;0.20;;;;;;;;;;4896969;29;20047;-39
2022/11/10 13:31:26;;;;;;;0.22;0.22;;;;;;;;;;4899543;29;20104;-39
2022/11/10 13:34:29;;;;;;;1.08;0.77;;;;;;;;;;4899367;29;20132;-39
2022/11/10 13:37:28;;;;;;;0.83;0.40;;;;;;;;;;4899605;29;20130;-39
2022/11/10 13:40:15;;;;;;;0.10;0.10;;;;;;;;;;4899459;29;20046;-39
2022/11/10 13:42:59;;;;;;;0.52;0.30;;;;;;;;;;4899545;29;20132;-39
2022/11/10 13:45:44;;;;;;;0.75;0.40;;;;;;;;;;4899530;29;20173;-39
2022/11/10 13:48:39;;;;;;;0.17;0.17;;;;;;;;;;4899305;29;20044;-40
2022/11/10 13:51:50;;;;;;;0.43;0.20;;;;;;;;;;4899131;29;20735;-39
2022/11/10 13:54:44;;;;;;;0.40;0.40;;;;;;;;;;4899126;29;20460;-42
2022/11/10 13:57:35;;;;;;;0.10;0.10;;;;;;;;;;4898904;29;20120;-39
2022/11/10 14:00:19;;;;;;;0.22;0.20;;;;;;;;;;4899199;29;20043;-39
2022/11/10 14:03:06;;;;;;;0.40;0.30;;;;;;;;;;4899177;29;20052;-39
2022/11/10 14:05:56;;;;;;;0.47;0.22;;;;;;;;;;4898833;29;20378;-39
2022/11/10 14:08:42;;;;;;;0.60;0.40;;;;;;;;;;4899028;29;20043;-39
2022/11/10 14:11:32;;;;;;;0.20;0.20;;;;;;;;;;4898810;29;20044;-39
2022/11/10 14:14:46;;;;;;;1.02;0.30;;;;;;;;;;4898710;29;20120;-39
2022/11/10 14:17:32;;;;;;;1.02;0.45;;;;;;;;;;4893888;29;20097;-39
2022/11/10 14:20:37;;;;;;;0.35;0.35;;;;;;;;;;4898808;29;20091;-39
2022/11/10 14:23:27;;;;;;;0.40;0.40;;;;;;;;;;4896236;29;20047;-39
2022/11/10 14:26:15;;;;;;;1.15;0.38;;;;;;;;;;4898552;29;20036;-39
2022/11/10 14:29:18;;;;;;;1.67;0.30;;;;;;;;;;4898559;29;20048;-39
2022/11/10 14:32:04;;;;;;;0.90;0.35;;;;;;;;;;4898359;29;20563;-39
2022/11/10 14:34:49;;;;;;;0.65;0.40;;;;;;;;;;4898630;29;20044;-39
2022/11/10 14:37:33;;;;;;;2.67;0.60;;;;;;;;;;4898589;29;20043;-40
2022/11/10 14:40:18;;;;;;;0.30;0.30;;;;;;;;;;4897533;29;20093;-38
2022/11/10 14:43:02;;;;;;;1.50;0.47;;;;;;;;;;4898364;29;20608;-39
2022/11/10 14:45:50;;;;;;;1.13;0.38;;;;;;;;;;4898467;29;20085;-39
2022/11/10 14:48:36;;;;;;;1.30;0.55;;;;;;;;;;4898438;29;20399;-39
2022/11/10 14:51:20;;;;;;;1.33;0.52;;;;;;;;;;4897978;29;20215;-39
2022/11/10 14:54:06;;;;;;;0.22;0.22;;;;;;;;;;4898211;29;20540;-39
2022/11/10 14:56:50;;;;;;;1.27;0.82;;;;;;;;;;4898219;29;20050;-39
2022/11/10 14:59:36;;;;;;;0.52;0.30;;;;;;;;;;4898113;29;20067;-39
2022/11/10 15:02:20;;;;;;;2.40;0.70;;;;;;;;;;4897924;29;20036;-39
2022/11/10 15:05:04;;;;;;;0.40;0.40;;;;;;;;;;4897633;29;20064;-39
2022/11/10 15:07:56;;;;;;;2.13;1.45;;;;;;;;;;4898103;29;20035;-40
2022/11/10 15:10:40;;;;;;;0.32;0.32;;;;;;;;;;4897027;29;20031;-39
2022/11/10 15:13:27;;;;;;;0.28;0.28;;;;;;;;;;4897949;29;20113;-39
2022/11/10 15:16:21;;;;;;;0.63;0.35;;;;;;;;;;4896544;29;20081;-39
2022/11/10 15:19:38;;;;;;;0.38;0.38;;;;;;;;;;4897752;29;20051;-39
2022/11/10 15:22:28;;;;;;;0.30;0.30;;;;;;;;;;4872668;29;20137;-39
2022/11/10 15:25:15;;;;;;;1.77;0.73;;;;;;;;;;4897439;29;20104;-39
2022/11/10 15:28:01;;;;;;;0.40;0.40;;;;;;;;;;4897614;29;20055;-39
2022/11/10 15:30:53;;;;;;;0.80;0.45;;;;;;;;;;4897657;29;20042;-39
2022/11/10 15:33:43;;;;;;;0.40;0.38;;;;;;;;;;4897344;29;20059;-39
2022/11/10 15:36:27;;;;;;;2.63;0.60;;;;;;;;;;4897355;29;20048;-39
2022/11/10 15:39:12;;;;;;;2.00;0.52;;;;;;;;;;4897345;29;20092;-39
2022/11/10 15:41:57;;;;;;;0.43;0.38;;;;;;;;;;4897343;29;20104;-39
2022/11/10 15:44:43;;;;;;;0.60;0.60;;;;;;;;;;4897429;29;20040;-39
2022/11/10 15:47:27;;;;;;;0.50;0.50;;;;;;;;;;4897156;29;20520;-39
2022/11/10 15:50:11;;;;;;;0.30;0.30;;;;;;;;;;4897185;29;20153;-39
2022/11/10 15:52:55;;;;;;;1.40;0.43;;;;;;;;;;4896853;29;20216;-39
2022/11/10 15:55:39;;;;;;;0.68;0.52;;;;;;;;;;4896146;29;20138;-39
2022/11/10 15:58:23;;;;;;;0.47;0.40;;;;;;;;;;4897142;29;20539;-40
2022/11/10 16:01:09;;;;;;;1.50;0.60;;;;;;;;;;4896793;29;20530;-39
2022/11/10 16:03:53;;;;;;;1.00;0.75;;;;;;;;;;4896880;29;20150;-39
2022/11/10 16:06:38;;;;;;;0.45;0.30;;;;;;;;;;4896623;29;20430;-44
2022/11/10 16:09:22;;;;;;;0.95;0.65;;;;;;;;;;4896934;29;20179;-39
2022/11/10 16:12:10;;;;;;;1.13;0.73;;;;;;;;;;4896736;29;20059;-39
2022/11/10 16:14:54;;;;;;;0.63;0.50;;;;;;;;;;4896829;29;20055;-40
2022/11/10 16:17:38;;;;;;;0.30;0.30;;;;;;;;;;4896574;29;20061;-39
2022/11/10 16:20:22;;;;;;;0.60;0.60;;;;;;;;;;4896500;29;20054;-39
2022/11/10 16:23:07;;;;;;;0.80;0.60;;;;;;;;;;4896546;29;20115;-39
2022/11/10 16:25:52;;;;;;;0.60;0.50;;;;;;;;;;4896803;29;20579;-39
2022/11/10 16:28:36;;;;;;;0.50;0.50;;;;;;;;;;4896721;29;20057;-39
2022/11/10 16:31:21;;;;;;;0.73;0.50;;;;;;;;;;4896382;29;20104;-39
2022/11/10 16:34:08;;;;;;;0.93;0.80;;;;;;;;;;4896373;29;20116;-39
2022/11/10 16:36:52;;;;;;;0.68;0.57;;;;;;;;;;4896598;29;20051;-39
2022/11/10 16:39:36;;;;;;;1.20;0.40;;;;;;;;;;4896383;29;20035;-39
2022/11/10 16:42:20;;;;;;;1.80;1.70;;;;;;;;;;4896245;29;20048;-39
2022/11/10 16:45:04;;;;;;;0.63;0.50;;;;;;;;;;4896465;29;20073;-39
2022/11/10 16:47:50;;;;;;;1.05;0.50;;;;;;;;;;4896583;29;20454;-40